Time;durP1;ratioP1;P1;durP2;ratioP2;P2;SDS_P1;SDS_P2;PMS_P1;PMS_P2;Temp;Humidity;BMP_temperature;BMP_pressure;BME280_temperature;BME280_humidity;BME280_pressure;Samples;Min_cycle;Max_cycle;Signal;HPM_P1;HPM_P2
2022/02/21 00:01:21;;;;;;;0.45;0.20;;;;;;;;;;4470168;28;20326;-59
2022/02/21 00:03:31;;;;;;;0.30;0.30;;;;;;;;;;4448971;28;20035;-59
2022/02/21 00:05:42;;;;;;;0.30;0.30;;;;;;;;;;4470268;28;20035;-59
2022/02/21 00:07:52;;;;;;;0.97;0.20;;;;;;;;;;4468983;28;34501;-59
2022/02/21 00:10:04;;;;;;;0.23;0.20;;;;;;;;;;4451401;28;32670;-59
2022/02/21 00:12:14;;;;;;;0.38;0.20;;;;;;;;;;4469553;28;20063;-58
2022/02/21 00:14:25;;;;;;;0.40;0.30;;;;;;;;;;4469417;28;32189;-59
2022/02/21 00:16:35;;;;;;;0.37;0.30;;;;;;;;;;4469913;28;20035;-59
2022/02/21 00:18:46;;;;;;;0.23;0.20;;;;;;;;;;4451791;28;20118;-58
2022/02/21 00:20:56;;;;;;;0.40;0.20;;;;;;;;;;4469128;28;20617;-59
2022/02/21 00:23:08;;;;;;;0.20;0.20;;;;;;;;;;4469604;28;20510;-59
2022/02/21 00:25:19;;;;;;;1.23;0.30;;;;;;;;;;4469792;28;20105;-59
2022/02/21 00:27:29;;;;;;;0.33;0.30;;;;;;;;;;4467926;28;20102;-59
2022/02/21 00:29:39;;;;;;;0.20;0.20;;;;;;;;;;4469389;28;20053;-58
2022/02/21 00:31:50;;;;;;;0.30;0.20;;;;;;;;;;4469439;28;20403;-59
2022/02/21 00:34:00;;;;;;;0.30;0.30;;;;;;;;;;4469953;28;20046;-59
2022/02/21 00:36:11;;;;;;;0.20;0.20;;;;;;;;;;4468951;28;21505;-58
2022/02/21 00:38:22;;;;;;;0.30;0.30;;;;;;;;;;4469611;28;20092;-59
2022/02/21 00:40:33;;;;;;;0.30;0.30;;;;;;;;;;4445967;28;20032;-59
2022/02/21 00:42:43;;;;;;;0.47;0.30;;;;;;;;;;4449047;28;20026;-59
2022/02/21 00:44:56;;;;;;;0.20;0.20;;;;;;;;;;4451562;28;24345;-59
2022/02/21 00:47:07;;;;;;;0.30;0.30;;;;;;;;;;4469568;28;20586;-59
2022/02/21 00:49:18;;;;;;;0.20;0.20;;;;;;;;;;4452139;28;20063;-59
2022/02/21 00:51:28;;;;;;;0.53;0.40;;;;;;;;;;4452133;28;20468;-58
2022/02/21 00:53:39;;;;;;;0.40;0.40;;;;;;;;;;4469113;28;20066;-59
2022/02/21 00:55:50;;;;;;;0.80;0.30;;;;;;;;;;4468322;28;20145;-58
2022/02/21 00:58:01;;;;;;;0.60;0.40;;;;;;;;;;4451496;28;20031;-58
2022/02/21 01:00:12;;;;;;;1.13;0.50;;;;;;;;;;4451127;28;20148;-59
2022/02/21 01:02:22;;;;;;;0.40;0.30;;;;;;;;;;4468884;28;20858;-58
2022/02/21 01:04:33;;;;;;;0.37;0.30;;;;;;;;;;4469006;28;20097;-59
2022/02/21 01:06:45;;;;;;;0.50;0.40;;;;;;;;;;4451430;28;20083;-59
2022/02/21 01:08:55;;;;;;;1.10;0.40;;;;;;;;;;4468685;28;20129;-59
2022/02/21 01:11:06;;;;;;;1.27;0.40;;;;;;;;;;4468860;28;20043;-58
2022/02/21 01:13:16;;;;;;;1.63;0.50;;;;;;;;;;4468345;28;20043;-59
2022/02/21 01:15:27;;;;;;;2.63;0.50;;;;;;;;;;4468328;28;20041;-59
2022/02/21 01:17:37;;;;;;;0.97;0.40;;;;;;;;;;4468077;28;38615;-58
2022/02/21 01:19:51;;;;;;;2.00;0.60;;;;;;;;;;4468046;28;20043;-59
2022/02/21 01:22:03;;;;;;;1.83;0.63;;;;;;;;;;4467666;28;20516;-59
2022/02/21 01:24:13;;;;;;;0.57;0.45;;;;;;;;;;4451634;28;20042;-59
2022/02/21 01:26:24;;;;;;;0.43;0.33;;;;;;;;;;4469004;28;20035;-59
2022/02/21 01:28:36;;;;;;;1.13;0.50;;;;;;;;;;4468893;28;21024;-59
2022/02/21 01:30:47;;;;;;;1.97;0.70;;;;;;;;;;4451196;28;20159;-59
2022/02/21 01:32:57;;;;;;;1.37;0.63;;;;;;;;;;4451001;28;20035;-59
2022/02/21 01:35:08;;;;;;;2.20;0.60;;;;;;;;;;4450797;28;20036;-59
2022/02/21 01:37:19;;;;;;;0.98;0.43;;;;;;;;;;4445335;28;20400;-59
2022/02/21 01:39:29;;;;;;;1.50;0.53;;;;;;;;;;4468980;28;20069;-59
2022/02/21 01:41:40;;;;;;;2.53;0.70;;;;;;;;;;4468809;28;20042;-59
2022/02/21 01:44:03;;;;;;;1.63;0.43;;;;;;;;;;4451307;28;20050;-58
2022/02/21 01:46:15;;;;;;;1.95;0.57;;;;;;;;;;4467530;28;20081;-59
2022/02/21 01:48:25;;;;;;;1.23;0.68;;;;;;;;;;4450664;28;20078;-58
2022/02/21 01:50:36;;;;;;;1.83;0.70;;;;;;;;;;4450270;28;20046;-59
2022/02/21 01:52:47;;;;;;;2.93;0.80;;;;;;;;;;4450561;28;20816;-58
2022/02/21 01:54:58;;;;;;;2.03;0.63;;;;;;;;;;4452452;28;20035;-59
2022/02/21 01:57:09;;;;;;;1.65;0.60;;;;;;;;;;4466579;28;20047;-59
2022/02/21 01:59:20;;;;;;;1.33;0.50;;;;;;;;;;4468554;28;20754;-58
2022/02/21 02:01:31;;;;;;;1.20;0.60;;;;;;;;;;4468497;28;20049;-58
2022/02/21 02:03:42;;;;;;;2.23;0.57;;;;;;;;;;4450867;28;20039;-59
2022/02/21 02:05:53;;;;;;;2.53;0.80;;;;;;;;;;4468888;28;20294;-58
2022/02/21 02:08:03;;;;;;;1.38;0.70;;;;;;;;;;4436941;28;20441;-59
2022/02/21 02:10:14;;;;;;;1.70;0.60;;;;;;;;;;4451097;28;20042;-59
2022/02/21 02:12:24;;;;;;;1.93;0.50;;;;;;;;;;4450617;28;20415;-59
2022/02/21 02:14:40;;;;;;;1.13;0.50;;;;;;;;;;4450027;28;20062;-58
2022/02/21 02:16:50;;;;;;;0.68;0.40;;;;;;;;;;4450875;28;20047;-58
2022/02/21 02:19:00;;;;;;;2.00;0.83;;;;;;;;;;4468044;28;20042;-59
2022/02/21 02:21:19;;;;;;;2.10;0.53;;;;;;;;;;4467840;28;32005;-59
2022/02/21 02:23:40;;;;;;;1.52;0.52;;;;;;;;;;4468456;28;20041;-59
2022/02/21 02:25:50;;;;;;;1.45;0.60;;;;;;;;;;4450773;28;20028;-59
2022/02/21 02:28:01;;;;;;;0.73;0.53;;;;;;;;;;4468015;28;20039;-59
2022/02/21 02:30:18;;;;;;;2.13;0.70;;;;;;;;;;4468186;28;20042;-59
2022/02/21 02:32:29;;;;;;;1.55;0.75;;;;;;;;;;4450560;28;20122;-58
2022/02/21 02:34:42;;;;;;;1.73;0.60;;;;;;;;;;4468053;28;20543;-59
2022/02/21 02:36:52;;;;;;;1.52;0.57;;;;;;;;;;4467927;28;20045;-59
2022/02/21 02:39:03;;;;;;;0.90;0.50;;;;;;;;;;4467637;28;20049;-59
2022/02/21 02:41:13;;;;;;;2.13;0.57;;;;;;;;;;4467784;28;26523;-59
2022/02/21 02:43:23;;;;;;;1.43;0.50;;;;;;;;;;4467982;28;20412;-58
2022/02/21 02:45:36;;;;;;;1.60;0.70;;;;;;;;;;4450219;28;20709;-59
2022/02/21 02:47:46;;;;;;;1.38;0.60;;;;;;;;;;4467947;28;20588;-58
2022/02/21 02:49:57;;;;;;;1.23;0.50;;;;;;;;;;4464454;28;20049;-58
2022/02/21 02:52:07;;;;;;;2.83;0.90;;;;;;;;;;4468388;28;20036;-58
2022/02/21 02:54:18;;;;;;;1.93;0.70;;;;;;;;;;4450805;28;20035;-58
2022/02/21 02:56:28;;;;;;;1.87;0.80;;;;;;;;;;4450197;28;20408;-58
2022/02/21 02:58:39;;;;;;;1.97;0.83;;;;;;;;;;4467433;28;20509;-59
2022/02/21 03:00:51;;;;;;;3.07;0.80;;;;;;;;;;4467817;28;20031;-58
2022/02/21 03:03:02;;;;;;;2.50;0.80;;;;;;;;;;4453835;28;20039;-59
2022/02/21 03:05:12;;;;;;;2.40;0.77;;;;;;;;;;4471317;28;20031;-59
2022/02/21 03:07:23;;;;;;;2.73;0.83;;;;;;;;;;4471188;28;20043;-59
2022/02/21 03:09:33;;;;;;;2.17;0.90;;;;;;;;;;4470936;28;20046;-58
2022/02/21 03:11:44;;;;;;;2.63;0.80;;;;;;;;;;4471134;28;20070;-58
2022/02/21 03:13:55;;;;;;;3.37;0.97;;;;;;;;;;4454093;28;20042;-59
2022/02/21 03:16:06;;;;;;;2.35;1.00;;;;;;;;;;4471244;28;20035;-59
2022/02/21 03:18:16;;;;;;;0.75;0.50;;;;;;;;;;4449959;28;20042;-59
2022/02/21 03:20:27;;;;;;;0.93;0.60;;;;;;;;;;4453384;28;20515;-59
2022/02/21 03:22:37;;;;;;;1.70;0.60;;;;;;;;;;4453527;28;20057;-59
2022/02/21 03:24:47;;;;;;;2.37;0.67;;;;;;;;;;4470895;28;20120;-59
2022/02/21 03:26:58;;;;;;;2.20;0.60;;;;;;;;;;4470734;28;20140;-59
2022/02/21 03:29:08;;;;;;;1.30;0.70;;;;;;;;;;4453301;28;20095;-59
2022/02/21 03:31:19;;;;;;;2.90;0.83;;;;;;;;;;4470618;28;20479;-59
2022/02/21 03:33:29;;;;;;;1.83;0.87;;;;;;;;;;4470917;28;20043;-59
2022/02/21 03:35:40;;;;;;;1.57;0.47;;;;;;;;;;4470276;28;20034;-58
2022/02/21 03:37:50;;;;;;;1.43;0.70;;;;;;;;;;4470296;28;20108;-59
2022/02/21 03:40:02;;;;;;;1.20;0.50;;;;;;;;;;4470101;28;20026;-59
2022/02/21 03:42:12;;;;;;;;;;;;;;;;;;4469221;28;20652;-59
2022/02/21 03:44:23;;;;;;;0.50;0.43;;;;;;;;;;4469570;28;19984;-59
2022/02/21 03:46:37;;;;;;;1.37;0.60;;;;;;;;;;4470673;28;20422;-58
2022/02/21 03:48:47;;;;;;;1.67;0.63;;;;;;;;;;4453276;28;20111;-59
2022/02/21 03:50:58;;;;;;;2.50;0.83;;;;;;;;;;4469039;28;20082;-59
2022/02/21 03:53:08;;;;;;;1.33;0.80;;;;;;;;;;4468949;28;20043;-59
2022/02/21 03:55:20;;;;;;;1.50;0.60;;;;;;;;;;4469456;28;20039;-59
2022/02/21 03:57:30;;;;;;;1.38;0.60;;;;;;;;;;4470073;28;20034;-59
2022/02/21 03:59:40;;;;;;;4.23;1.07;;;;;;;;;;4470086;28;20323;-58
2022/02/21 04:01:52;;;;;;;2.30;0.80;;;;;;;;;;4470340;28;20443;-58
2022/02/21 04:04:02;;;;;;;3.20;0.95;;;;;;;;;;4469951;28;20039;-59
2022/02/21 04:06:13;;;;;;;1.60;0.80;;;;;;;;;;4470550;28;20043;-59
2022/02/21 04:08:23;;;;;;;2.33;0.90;;;;;;;;;;4469463;28;20137;-59
2022/02/21 04:10:34;;;;;;;2.57;1.13;;;;;;;;;;4471045;28;20133;-59
2022/02/21 04:12:44;;;;;;;2.00;0.77;;;;;;;;;;4454612;28;20042;-59
2022/02/21 04:14:55;;;;;;;3.83;0.97;;;;;;;;;;4470569;28;20038;-59
2022/02/21 04:17:05;;;;;;;3.07;1.00;;;;;;;;;;4469180;28;20122;-59
2022/02/21 04:19:15;;;;;;;2.00;0.73;;;;;;;;;;4468605;28;20113;-58
2022/02/21 04:21:26;;;;;;;2.67;1.00;;;;;;;;;;4469712;28;20035;-59
2022/02/21 04:23:36;;;;;;;3.40;0.80;;;;;;;;;;4467929;28;40077;-59
2022/02/21 04:25:47;;;;;;;2.23;1.03;;;;;;;;;;4469599;28;20386;-59
2022/02/21 04:27:57;;;;;;;2.13;0.80;;;;;;;;;;4452179;28;20500;-59
2022/02/21 04:30:08;;;;;;;2.70;0.90;;;;;;;;;;4470399;28;20039;-59
2022/02/21 04:32:18;;;;;;;3.23;0.87;;;;;;;;;;4470079;28;20502;-59
2022/02/21 04:34:29;;;;;;;2.23;0.90;;;;;;;;;;4469956;28;20341;-58
2022/02/21 04:36:40;;;;;;;0.73;0.57;;;;;;;;;;4469538;28;21958;-58
2022/02/21 04:38:51;;;;;;;1.17;0.70;;;;;;;;;;4469922;28;20162;-59
2022/02/21 04:41:02;;;;;;;2.67;0.80;;;;;;;;;;4469313;28;20246;-59
2022/02/21 04:43:12;;;;;;;3.27;0.77;;;;;;;;;;4469542;28;20582;-59
2022/02/21 04:45:23;;;;;;;2.20;0.80;;;;;;;;;;4469340;28;20109;-58
2022/02/21 04:47:34;;;;;;;2.55;0.90;;;;;;;;;;4469744;28;20031;-58
2022/02/21 04:49:44;;;;;;;2.77;1.00;;;;;;;;;;4451842;28;20415;-58
2022/02/21 04:51:57;;;;;;;4.23;1.10;;;;;;;;;;4469020;28;35940;-59
2022/02/21 04:54:07;;;;;;;2.88;0.93;;;;;;;;;;4469655;28;20610;-58
2022/02/21 04:56:18;;;;;;;2.47;0.93;;;;;;;;;;4469274;28;20047;-59
2022/02/21 04:58:28;;;;;;;2.93;0.97;;;;;;;;;;4468931;28;20058;-59
2022/02/21 05:00:39;;;;;;;3.07;1.10;;;;;;;;;;4469993;28;20066;-59
2022/02/21 05:02:49;;;;;;;5.43;1.30;;;;;;;;;;4469060;28;20089;-58
2022/02/21 05:05:00;;;;;;;2.50;1.10;;;;;;;;;;4469225;28;20035;-59
2022/02/21 05:07:10;;;;;;;3.00;1.13;;;;;;;;;;4451762;28;20035;-58
2022/02/21 05:09:21;;;;;;;2.87;0.93;;;;;;;;;;4468979;28;20563;-59
2022/02/21 05:11:31;;;;;;;3.97;1.30;;;;;;;;;;4469193;28;20913;-58
2022/02/21 05:13:42;;;;;;;2.73;1.00;;;;;;;;;;4469437;28;20439;-59
2022/02/21 05:15:52;;;;;;;3.03;1.17;;;;;;;;;;4468953;28;31016;-59
2022/02/21 05:18:02;;;;;;;2.93;1.10;;;;;;;;;;4451286;28;23305;-59
2022/02/21 05:20:13;;;;;;;2.87;0.73;;;;;;;;;;4469014;28;20034;-58
2022/02/21 05:22:23;;;;;;;2.27;1.07;;;;;;;;;;4469258;28;20076;-58
2022/02/21 05:24:34;;;;;;;3.77;1.00;;;;;;;;;;4468385;28;20085;-59
2022/02/21 05:26:44;;;;;;;2.47;0.90;;;;;;;;;;4468769;28;26449;-59
2022/02/21 05:28:55;;;;;;;2.50;0.90;;;;;;;;;;4452363;28;20066;-59
2022/02/21 05:31:05;;;;;;;2.03;0.83;;;;;;;;;;4451040;28;20065;-59
2022/02/21 05:33:16;;;;;;;2.57;0.70;;;;;;;;;;4468606;28;23600;-58
2022/02/21 05:35:26;;;;;;;2.70;0.80;;;;;;;;;;4469527;28;20038;-58
2022/02/21 05:37:37;;;;;;;1.53;0.60;;;;;;;;;;4468268;28;20039;-59
2022/02/21 05:39:50;;;;;;;1.20;0.50;;;;;;;;;;4468900;28;20573;-59
2022/02/21 05:42:01;;;;;;;1.17;0.52;;;;;;;;;;4467388;28;20628;-59
2022/02/21 05:44:11;;;;;;;1.87;0.60;;;;;;;;;;4468663;28;20108;-58
2022/02/21 05:46:22;;;;;;;0.93;0.50;;;;;;;;;;4468582;28;20030;-58
2022/02/21 05:48:32;;;;;;;1.93;0.70;;;;;;;;;;4450611;28;20546;-59
2022/02/21 05:50:43;;;;;;;1.30;0.70;;;;;;;;;;4468667;28;20039;-59
2022/02/21 05:52:53;;;;;;;1.97;0.83;;;;;;;;;;4467445;28;34434;-58
2022/02/21 05:55:04;;;;;;;2.97;0.90;;;;;;;;;;4450784;28;20043;-59
2022/02/21 05:57:14;;;;;;;2.63;0.80;;;;;;;;;;4468317;28;20046;-58
2022/02/21 05:59:25;;;;;;;1.50;0.67;;;;;;;;;;4450600;28;20126;-58
2022/02/21 06:01:35;;;;;;;2.50;0.83;;;;;;;;;;4468173;28;20027;-59
2022/02/21 06:03:46;;;;;;;3.03;0.90;;;;;;;;;;4468398;28;21122;-59
2022/02/21 06:05:56;;;;;;;1.20;0.70;;;;;;;;;;4468713;28;20515;-57
2022/02/21 06:08:06;;;;;;;1.40;0.70;;;;;;;;;;4467859;28;20038;-58
2022/02/21 06:10:17;;;;;;;2.67;0.80;;;;;;;;;;4468326;28;23095;-58
2022/02/21 06:12:27;;;;;;;2.20;0.97;;;;;;;;;;4468676;28;20041;-59
2022/02/21 06:14:38;;;;;;;1.63;0.73;;;;;;;;;;4468465;28;20042;-59
2022/02/21 06:16:48;;;;;;;2.10;0.80;;;;;;;;;;4467782;28;20042;-59
2022/02/21 06:19:00;;;;;;;3.00;0.97;;;;;;;;;;4469501;28;20479;-58
2022/02/21 06:21:10;;;;;;;2.70;1.02;;;;;;;;;;4453408;28;20099;-59
2022/02/21 06:23:20;;;;;;;2.53;0.90;;;;;;;;;;4468317;28;20050;-58
2022/02/21 06:25:31;;;;;;;2.60;0.90;;;;;;;;;;4468731;28;20526;-58
2022/02/21 06:27:41;;;;;;;1.53;0.90;;;;;;;;;;4468840;28;20026;-59
2022/02/21 06:29:52;;;;;;;2.70;1.10;;;;;;;;;;4468250;28;20556;-58
2022/02/21 06:32:03;;;;;;;1.57;0.80;;;;;;;;;;4468483;28;22719;-58
2022/02/21 06:34:14;;;;;;;2.65;1.00;;;;;;;;;;4468478;28;20050;-58
2022/02/21 06:36:24;;;;;;;2.00;0.80;;;;;;;;;;4468306;28;20046;-58
2022/02/21 06:38:36;;;;;;;2.43;0.97;;;;;;;;;;4467992;28;25942;-58
2022/02/21 06:40:47;;;;;;;1.92;1.00;;;;;;;;;;4467716;28;20834;-58
2022/02/21 06:42:57;;;;;;;2.80;0.93;;;;;;;;;;4467498;28;34114;-58
2022/02/21 06:45:08;;;;;;;2.97;1.03;;;;;;;;;;4468066;28;20038;-58
2022/02/21 06:47:19;;;;;;;2.58;1.10;;;;;;;;;;4467805;28;20045;-58
2022/02/21 06:49:29;;;;;;;3.30;1.00;;;;;;;;;;4468260;28;20050;-58
2022/02/21 06:51:40;;;;;;;2.00;0.90;;;;;;;;;;4450116;28;20449;-59
2022/02/21 06:53:50;;;;;;;2.27;1.00;;;;;;;;;;4450710;28;20035;-58
2022/02/21 06:56:01;;;;;;;3.57;1.30;;;;;;;;;;4447478;28;20564;-59
2022/02/21 06:58:11;;;;;;;2.53;0.90;;;;;;;;;;4467584;28;20706;-58
2022/02/21 07:00:22;;;;;;;3.23;1.20;;;;;;;;;;4467140;28;20039;-59
2022/02/21 07:02:33;;;;;;;2.57;1.20;;;;;;;;;;4467167;28;20047;-58
2022/02/21 07:04:43;;;;;;;1.33;0.63;;;;;;;;;;4467204;28;20070;-59
2022/02/21 07:06:54;;;;;;;2.77;1.17;;;;;;;;;;4449715;28;20046;-59
2022/02/21 07:09:04;;;;;;;3.73;1.00;;;;;;;;;;4466339;28;20042;-59
2022/02/21 07:11:14;;;;;;;3.77;1.40;;;;;;;;;;4449255;28;20063;-58
2022/02/21 07:13:25;;;;;;;2.37;1.00;;;;;;;;;;4466687;28;20114;-58
2022/02/21 07:15:35;;;;;;;3.77;1.10;;;;;;;;;;4466497;28;20034;-60
2022/02/21 07:17:46;;;;;;;2.33;0.97;;;;;;;;;;4464968;28;20050;-59
2022/02/21 07:19:56;;;;;;;3.30;0.97;;;;;;;;;;4466178;28;20526;-59
2022/02/21 07:22:06;;;;;;;2.03;1.00;;;;;;;;;;4467066;28;20042;-58
2022/02/21 07:24:17;;;;;;;3.13;1.13;;;;;;;;;;4466366;28;20073;-58
2022/02/21 07:26:28;;;;;;;3.07;1.10;;;;;;;;;;4449243;28;20054;-59
2022/02/21 07:28:38;;;;;;;2.50;1.07;;;;;;;;;;4467099;28;20642;-58
2022/02/21 07:30:48;;;;;;;3.27;1.10;;;;;;;;;;4448510;28;32007;-58
2022/02/21 07:32:59;;;;;;;2.00;1.00;;;;;;;;;;4466748;28;20046;-58
2022/02/21 07:35:10;;;;;;;2.77;1.23;;;;;;;;;;4466819;28;20078;-58
2022/02/21 07:37:20;;;;;;;2.33;1.00;;;;;;;;;;4467150;28;20081;-58
2022/02/21 07:39:32;;;;;;;2.27;1.20;;;;;;;;;;4466933;28;20046;-60
2022/02/21 07:41:43;;;;;;;;;;;;;;;;;;4445339;28;20788;-59
2022/02/21 07:43:53;;;;;;;3.72;1.60;;;;;;;;;;4467100;28;20299;-59
2022/02/21 07:46:03;;;;;;;2.67;1.07;;;;;;;;;;4465903;28;20043;-58
2022/02/21 07:48:14;;;;;;;3.17;1.00;;;;;;;;;;4450575;28;20455;-59
2022/02/21 07:50:26;;;;;;;2.43;0.80;;;;;;;;;;4470129;28;20035;-58
2022/02/21 07:52:36;;;;;;;2.90;1.08;;;;;;;;;;4470126;28;20045;-58
2022/02/21 07:54:47;;;;;;;4.83;1.30;;;;;;;;;;4452669;28;20054;-58
2022/02/21 07:56:59;;;;;;;2.10;1.00;;;;;;;;;;4469900;28;20039;-58
2022/02/21 07:59:09;;;;;;;4.10;1.17;;;;;;;;;;4470112;28;20126;-59
2022/02/21 08:01:19;;;;;;;3.00;1.20;;;;;;;;;;4470435;28;20049;-58
2022/02/21 08:03:30;;;;;;;3.83;1.30;;;;;;;;;;4469729;28;20082;-57
2022/02/21 08:05:40;;;;;;;4.60;1.80;;;;;;;;;;4469692;28;20065;-58
2022/02/21 08:07:51;;;;;;;3.67;1.73;;;;;;;;;;4451992;28;20036;-58
2022/02/21 08:10:02;;;;;;;3.90;1.70;;;;;;;;;;4470281;28;20129;-58
2022/02/21 08:12:12;;;;;;;3.83;1.20;;;;;;;;;;4470240;28;20062;-58
2022/02/21 08:14:23;;;;;;;3.20;0.83;;;;;;;;;;4469745;28;20559;-58
2022/02/21 08:16:33;;;;;;;2.80;1.17;;;;;;;;;;4469965;28;20114;-58
2022/02/21 08:18:44;;;;;;;3.97;1.30;;;;;;;;;;4469250;28;20046;-58
2022/02/21 08:20:54;;;;;;;3.67;1.20;;;;;;;;;;4469609;28;20399;-58
2022/02/21 08:23:05;;;;;;;3.40;0.90;;;;;;;;;;4452179;28;20046;-58
2022/02/21 08:25:16;;;;;;;3.57;1.03;;;;;;;;;;4452227;28;20043;-58
2022/02/21 08:27:26;;;;;;;2.58;1.08;;;;;;;;;;4469669;28;20031;-58
2022/02/21 08:29:37;;;;;;;4.23;1.63;;;;;;;;;;4467782;28;20086;-58
2022/02/21 08:31:48;;;;;;;4.43;1.60;;;;;;;;;;4445448;28;20485;-59
2022/02/21 08:33:59;;;;;;;3.90;1.45;;;;;;;;;;4435778;28;20130;-58
2022/02/21 08:36:09;;;;;;;3.60;1.33;;;;;;;;;;4451627;28;20035;-58
2022/02/21 08:38:19;;;;;;;3.37;1.23;;;;;;;;;;4468692;28;20041;-58
2022/02/21 08:40:30;;;;;;;2.93;1.10;;;;;;;;;;4468847;28;20035;-59
2022/02/21 08:42:41;;;;;;;2.83;1.10;;;;;;;;;;4452036;28;20035;-58
2022/02/21 08:44:52;;;;;;;3.45;1.10;;;;;;;;;;4469283;28;20062;-58
2022/02/21 08:47:02;;;;;;;3.33;1.03;;;;;;;;;;4450670;28;20066;-58
2022/02/21 08:49:13;;;;;;;3.07;1.00;;;;;;;;;;4468501;28;20027;-58
2022/02/21 08:51:23;;;;;;;3.43;1.13;;;;;;;;;;4468934;28;20039;-58
2022/02/21 08:53:33;;;;;;;3.80;1.43;;;;;;;;;;4469183;28;20495;-58
2022/02/21 08:55:44;;;;;;;3.50;0.97;;;;;;;;;;4469215;28;20039;-58
2022/02/21 08:57:54;;;;;;;3.53;0.97;;;;;;;;;;4468323;28;20611;-57
2022/02/21 09:00:06;;;;;;;4.10;1.20;;;;;;;;;;4468014;28;20061;-58
2022/02/21 09:02:19;;;;;;;2.65;1.17;;;;;;;;;;4469039;28;20386;-57
2022/02/21 09:04:29;;;;;;;5.28;1.55;;;;;;;;;;4468795;28;20121;-58
2022/02/21 09:06:39;;;;;;;3.33;1.10;;;;;;;;;;4469060;28;20174;-58
2022/02/21 09:08:50;;;;;;;2.83;1.20;;;;;;;;;;4468026;28;20038;-58
2022/02/21 09:11:02;;;;;;;3.97;1.23;;;;;;;;;;4468907;28;20067;-58
2022/02/21 09:13:12;;;;;;;;;;;;;;;;;;4452045;28;20662;-58
2022/02/21 09:15:23;;;;;;;2.28;1.00;;;;;;;;;;4467152;28;19968;-58
2022/02/21 09:17:34;;;;;;;4.05;1.63;;;;;;;;;;4452007;28;20611;-59
2022/02/21 09:19:44;;;;;;;3.90;1.40;;;;;;;;;;4438258;28;20706;-58
2022/02/21 09:21:55;;;;;;;2.87;1.23;;;;;;;;;;4450814;28;20050;-58
2022/02/21 09:24:05;;;;;;;5.80;1.30;;;;;;;;;;4468533;28;20026;-58
2022/02/21 09:26:17;;;;;;;5.27;1.43;;;;;;;;;;4440313;28;20538;-58
2022/02/21 09:28:27;;;;;;;;;;;;;;;;;;4451006;28;20115;-58
2022/02/21 09:30:38;;;;;;;4.25;1.27;;;;;;;;;;4469172;28;20032;-58
2022/02/21 09:32:49;;;;;;;5.00;1.27;;;;;;;;;;4468348;28;20053;-58
2022/02/21 09:34:59;;;;;;;4.03;1.13;;;;;;;;;;4468332;28;20035;-58
2022/02/21 09:37:10;;;;;;;4.57;1.07;;;;;;;;;;4468532;28;20035;-58
2022/02/21 09:39:20;;;;;;;2.40;1.10;;;;;;;;;;4468170;28;20039;-58
2022/02/21 09:41:31;;;;;;;4.17;1.30;;;;;;;;;;4468688;28;20042;-58
2022/02/21 09:43:41;;;;;;;3.53;1.23;;;;;;;;;;4468045;28;20503;-58
2022/02/21 09:46:01;;;;;;;4.00;1.20;;;;;;;;;;4450307;28;20107;-59
2022/02/21 09:48:13;;;;;;;3.10;1.05;;;;;;;;;;4450522;28;20046;-58
2022/02/21 09:50:26;;;;;;;3.13;1.02;;;;;;;;;;4468284;28;20128;-58
2022/02/21 09:52:36;;;;;;;3.00;1.20;;;;;;;;;;4468427;28;20035;-58
2022/02/21 09:54:47;;;;;;;3.97;1.17;;;;;;;;;;4467752;28;20362;-58
2022/02/21 09:56:58;;;;;;;2.40;1.20;;;;;;;;;;4467707;28;20038;-59
2022/02/21 09:59:10;;;;;;;4.57;1.20;;;;;;;;;;4466864;28;20035;-59
2022/02/21 10:01:24;;;;;;;;;;;;;;;;;;4450724;28;20038;-58
2022/02/21 10:03:37;;;;;;;3.70;1.17;;;;;;;;;;4466111;28;19925;-61
2022/02/21 10:05:50;;;;;;;1.83;0.80;;;;;;;;;;4466277;28;20042;-59
2022/02/21 10:08:07;;;;;;;3.85;1.10;;;;;;;;;;4467946;28;20902;-58
2022/02/21 10:10:20;;;;;;;2.17;1.00;;;;;;;;;;4467101;28;20617;-59
2022/02/21 10:12:31;;;;;;;1.75;0.90;;;;;;;;;;4467656;28;20023;-59
2022/02/21 10:14:42;;;;;;;2.80;0.90;;;;;;;;;;4449968;28;20039;-59
2022/02/21 10:16:58;;;;;;;2.88;1.20;;;;;;;;;;4465868;28;20604;-59
2022/02/21 10:19:10;;;;;;;2.78;0.95;;;;;;;;;;4449888;28;20770;-58
2022/02/21 10:21:21;;;;;;;3.35;1.02;;;;;;;;;;4467145;28;20050;-58
2022/02/21 10:23:35;;;;;;;3.40;1.10;;;;;;;;;;4467255;28;20058;-59
2022/02/21 10:25:58;;;;;;;3.25;0.90;;;;;;;;;;4466148;28;20047;-59
2022/02/21 10:28:08;;;;;;;2.35;0.80;;;;;;;;;;4466762;28;20074;-59
2022/02/21 10:30:19;;;;;;;2.40;0.83;;;;;;;;;;4466722;28;20479;-58
2022/02/21 10:32:32;;;;;;;3.80;1.07;;;;;;;;;;4449806;28;20053;-59
2022/02/21 10:34:45;;;;;;;2.17;0.88;;;;;;;;;;4449633;28;20039;-58
2022/02/21 10:36:56;;;;;;;2.35;0.80;;;;;;;;;;4446195;28;20623;-58
2022/02/21 10:39:08;;;;;;;2.67;0.90;;;;;;;;;;4467775;28;20086;-59
2022/02/21 10:41:21;;;;;;;3.60;0.93;;;;;;;;;;4466736;28;20031;-61
2022/02/21 10:43:32;;;;;;;3.28;0.90;;;;;;;;;;4466381;28;20038;-59
2022/02/21 10:45:44;;;;;;;4.47;1.10;;;;;;;;;;4467092;28;20038;-59
2022/02/21 10:48:00;;;;;;;2.72;0.75;;;;;;;;;;4467128;28;21364;-59
2022/02/21 10:50:10;;;;;;;1.98;0.75;;;;;;;;;;4465835;28;20100;-60
2022/02/21 10:52:43;;;;;;;3.40;1.30;;;;;;;;;;4466580;28;20094;-59
2022/02/21 10:54:55;;;;;;;3.67;1.10;;;;;;;;;;4432823;28;20083;-59
2022/02/21 10:57:10;;;;;;;2.65;1.00;;;;;;;;;;4466396;28;20046;-60
2022/02/21 10:59:21;;;;;;;2.20;0.90;;;;;;;;;;4467122;28;20038;-59
2022/02/21 11:01:32;;;;;;;3.22;0.85;;;;;;;;;;4449700;28;20039;-59
2022/02/21 11:03:42;;;;;;;3.07;0.77;;;;;;;;;;4449056;28;20031;-60
2022/02/21 11:05:55;;;;;;;3.87;1.07;;;;;;;;;;4448689;28;20035;-59
2022/02/21 11:08:06;;;;;;;3.25;1.05;;;;;;;;;;4449223;28;20162;-59
2022/02/21 11:10:17;;;;;;;2.78;0.80;;;;;;;;;;4466612;28;20582;-59
2022/02/21 11:12:32;;;;;;;3.23;1.00;;;;;;;;;;4449270;28;20047;-59
2022/02/21 11:14:42;;;;;;;3.78;0.95;;;;;;;;;;4449903;28;20101;-60
2022/02/21 11:16:55;;;;;;;2.77;1.00;;;;;;;;;;4466486;28;20049;-60
2022/02/21 11:19:05;;;;;;;3.63;1.27;;;;;;;;;;4449626;28;20122;-60
2022/02/21 11:21:16;;;;;;;3.40;1.20;;;;;;;;;;4449369;28;20078;-60
2022/02/21 11:23:27;;;;;;;2.50;0.80;;;;;;;;;;4468320;28;20515;-60
2022/02/21 11:25:42;;;;;;;2.33;0.98;;;;;;;;;;4470314;28;20085;-60
2022/02/21 11:28:21;;;;;;;2.15;0.77;;;;;;;;;;4468332;28;20043;-60
2022/02/21 11:30:31;;;;;;;3.58;1.20;;;;;;;;;;4469662;28;20046;-60
2022/02/21 11:33:00;;;;;;;3.90;0.90;;;;;;;;;;4469625;28;20035;-60
2022/02/21 11:35:17;;;;;;;2.45;0.90;;;;;;;;;;4469632;28;20503;-61
2022/02/21 11:37:27;;;;;;;1.85;1.00;;;;;;;;;;4451393;28;20615;-60
2022/02/21 11:39:38;;;;;;;1.67;0.77;;;;;;;;;;4469453;28;20151;-60
2022/02/21 11:42:16;;;;;;;2.37;0.80;;;;;;;;;;4452313;28;29552;-59
2022/02/21 11:44:27;;;;;;;2.05;0.77;;;;;;;;;;4434287;28;20093;-59
2022/02/21 11:46:37;;;;;;;1.70;0.80;;;;;;;;;;4452469;28;20475;-59
2022/02/21 11:48:59;;;;;;;2.00;0.73;;;;;;;;;;4469169;28;20055;-59
2022/02/21 11:51:31;;;;;;;2.33;0.90;;;;;;;;;;4469591;28;20026;-58
2022/02/21 11:53:42;;;;;;;2.08;0.93;;;;;;;;;;4469971;28;20081;-59
2022/02/21 11:55:52;;;;;;;2.20;0.97;;;;;;;;;;4469673;28;20506;-59
2022/02/21 11:58:23;;;;;;;2.77;1.07;;;;;;;;;;4468441;28;20046;-59
2022/02/21 12:00:47;;;;;;;2.10;0.88;;;;;;;;;;4470045;28;20043;-59
2022/02/21 12:03:14;;;;;;;2.30;0.90;;;;;;;;;;4470154;28;20242;-59
2022/02/21 12:05:27;;;;;;;3.17;1.00;;;;;;;;;;4469427;28;20042;-59
2022/02/21 12:07:38;;;;;;;1.90;0.70;;;;;;;;;;4469237;28;20168;-59
2022/02/21 12:10:10;;;;;;;1.70;0.73;;;;;;;;;;4469272;28;20181;-59
2022/02/21 12:12:22;;;;;;;1.48;0.82;;;;;;;;;;4468700;28;20051;-59
2022/02/21 12:14:32;;;;;;;;;;;;;;;;;;4469882;28;20023;-59
2022/02/21 12:16:58;;;;;;;2.38;0.77;;;;;;;;;;4469586;28;19918;-58
2022/02/21 12:19:25;;;;;;;2.42;0.85;;;;;;;;;;4468212;28;20065;-58
2022/02/21 12:21:38;;;;;;;1.77;0.95;;;;;;;;;;4469682;28;20085;-59
2022/02/21 12:24:00;;;;;;;1.60;0.70;;;;;;;;;;4469572;28;20066;-58
2022/02/21 12:26:10;;;;;;;1.85;0.70;;;;;;;;;;4451515;28;20039;-58
2022/02/21 12:28:22;;;;;;;2.27;1.00;;;;;;;;;;4469028;28;20488;-58
2022/02/21 12:30:37;;;;;;;1.13;0.60;;;;;;;;;;4468828;28;20072;-59
2022/02/21 12:32:49;;;;;;;1.80;0.80;;;;;;;;;;4468780;28;20129;-58
2022/02/21 12:35:00;;;;;;;1.90;0.63;;;;;;;;;;4451021;28;20146;-58
2022/02/21 12:37:11;;;;;;;;;;;;;;;;;;4468417;28;20034;-58
2022/02/21 12:39:24;;;;;;;1.42;0.60;;;;;;;;;;4468311;28;20383;-59
2022/02/21 12:41:36;;;;;;;0.75;0.50;;;;;;;;;;4451295;28;20070;-58
2022/02/21 12:43:55;;;;;;;1.02;0.60;;;;;;;;;;4468738;28;20023;-58
2022/02/21 12:46:06;;;;;;;0.80;0.50;;;;;;;;;;4439036;28;20062;-59
2022/02/21 12:48:19;;;;;;;0.93;0.40;;;;;;;;;;4468631;28;20074;-59
2022/02/21 12:50:29;;;;;;;1.02;0.40;;;;;;;;;;4435770;28;20047;-59
2022/02/21 12:52:40;;;;;;;1.73;0.53;;;;;;;;;;4450596;28;42475;-59
2022/02/21 12:54:55;;;;;;;0.67;0.30;;;;;;;;;;4450395;28;20046;-58
2022/02/21 12:57:06;;;;;;;0.70;0.30;;;;;;;;;;4450645;28;20023;-58
2022/02/21 12:59:21;;;;;;;0.83;0.50;;;;;;;;;;4468271;28;20039;-59
2022/02/21 13:01:31;;;;;;;0.40;0.40;;;;;;;;;;4464643;28;20086;-59
2022/02/21 13:03:42;;;;;;;0.57;0.30;;;;;;;;;;4469026;28;20092;-58
2022/02/21 13:05:59;;;;;;;0.40;0.40;;;;;;;;;;4468759;28;20517;-59
2022/02/21 13:08:10;;;;;;;0.68;0.40;;;;;;;;;;4468358;28;20046;-58
2022/02/21 13:10:21;;;;;;;0.35;0.30;;;;;;;;;;4468497;28;21259;-59
2022/02/21 13:12:31;;;;;;;0.40;0.40;;;;;;;;;;4469160;28;20035;-58